sensor_id;sensor_type;location;lat;lon;timestamp;pressure;altitude;pressure_sealevel;temperature;humidity
27984;BME280;15317;50.360;8.726;2023-05-24T00:00:47;100027.06;;;9.42;100.00
27984;BME280;15317;50.360;8.726;2023-05-24T00:05:55;100023.38;;;9.33;100.00
27984;BME280;15317;50.360;8.726;2023-05-24T00:10:59;100031.88;;;9.19;100.00
27984;BME280;15317;50.360;8.726;2023-05-24T00:16:02;100032.41;;;9.03;100.00
27984;BME280;15317;50.360;8.726;2023-05-24T00:21:07;100032.41;;;9.03;100.00
27984;BME280;15317;50.360;8.726;2023-05-24T00:26:10;100025.81;;;8.96;100.00
27984;BME280;15317;50.360;8.726;2023-05-24T00:31:14;100036.63;;;8.87;100.00
27984;BME280;15317;50.360;8.726;2023-05-24T00:36:18;100027.88;;;8.83;100.00
27984;BME280;15317;50.360;8.726;2023-05-24T00:41:22;100038.00;;;8.81;100.00
27984;BME280;15317;50.360;8.726;2023-05-24T00:46:28;100035.38;;;8.70;100.00
27984;BME280;15317;50.360;8.726;2023-05-24T00:51:33;100031.41;;;8.74;100.00
27984;BME280;15317;50.360;8.726;2023-05-24T00:56:38;100036.69;;;8.76;100.00
27984;BME280;15317;50.360;8.726;2023-05-24T01:01:41;100031.56;;;8.73;100.00
27984;BME280;15317;50.360;8.726;2023-05-24T01:07:01;100030.97;;;8.69;100.00
27984;BME280;15317;50.360;8.726;2023-05-24T01:12:17;100035.38;;;8.70;100.00
27984;BME280;15317;50.360;8.726;2023-05-24T01:17:23;100024.81;;;8.67;100.00
27984;BME280;15317;50.360;8.726;2023-05-24T01:22:43;100024.56;;;8.70;98.03
27984;BME280;15317;50.360;8.726;2023-05-24T01:27:52;100024.56;;;8.70;99.54
27984;BME280;15317;50.360;8.726;2023-05-24T01:32:56;100016.69;;;8.67;100.00
27984;BME280;15317;50.360;8.726;2023-05-24T01:38:00;100015.97;;;8.65;98.71
27984;BME280;15317;50.360;8.726;2023-05-24T01:43:13;100014.25;;;8.64;97.95
27984;BME280;15317;50.360;8.726;2023-05-24T01:48:23;100020.22;;;8.58;98.96
27984;BME280;15317;50.360;8.726;2023-05-24T01:53:32;100025.44;;;8.50;100.00
27984;BME280;15317;50.360;8.726;2023-05-24T01:58:38;100014.50;;;8.30;100.00
27984;BME280;15317;50.360;8.726;2023-05-24T02:03:42;100010.56;;;8.23;100.00
27984;BME280;15317;50.360;8.726;2023-05-24T02:08:45;100013.94;;;8.16;100.00
27984;BME280;15317;50.360;8.726;2023-05-24T02:13:50;100008.00;;;8.01;100.00
27984;BME280;15317;50.360;8.726;2023-05-24T02:18:53;100023.75;;;7.96;100.00
27984;BME280;15317;50.360;8.726;2023-05-24T02:23:56;100011.47;;;7.92;100.00
27984;BME280;15317;50.360;8.726;2023-05-24T02:29:01;100013.81;;;7.97;100.00
27984;BME280;15317;50.360;8.726;2023-05-24T02:34:05;100011.78;;;7.99;100.00
27984;BME280;15317;50.360;8.726;2023-05-24T02:39:08;100012.94;;;7.96;100.00
27984;BME280;15317;50.360;8.726;2023-05-24T02:44:13;100008.41;;;7.85;100.00
27984;BME280;15317;50.360;8.726;2023-05-24T02:49:16;100003.53;;;7.79;100.00
27984;BME280;15317;50.360;8.726;2023-05-24T02:54:20;100004.81;;;7.75;97.41
27984;BME280;15317;50.360;8.726;2023-05-24T02:59:24;100008.66;;;7.62;97.29
27984;BME280;15317;50.360;8.726;2023-05-24T03:04:27;100008.19;;;7.57;95.75
27984;BME280;15317;50.360;8.726;2023-05-24T03:09:31;100002.78;;;7.57;94.96
27984;BME280;15317;50.360;8.726;2023-05-24T03:14:35;99993.47;;;7.49;93.95
27984;BME280;15317;50.360;8.726;2023-05-24T03:19:39;99989.91;;;7.49;93.98
27984;BME280;15317;50.360;8.726;2023-05-24T03:24:42;99995.22;;;7.39;96.54
27984;BME280;15317;50.360;8.726;2023-05-24T03:29:48;99991.69;;;7.28;98.50
27984;BME280;15317;50.360;8.726;2023-05-24T03:34:51;99995.50;;;7.25;97.78
27984;BME280;15317;50.360;8.726;2023-05-24T03:39:55;99994.03;;;7.21;99.17
27984;BME280;15317;50.360;8.726;2023-05-24T03:45:00;99990.59;;;7.19;97.38
27984;BME280;15317;50.360;8.726;2023-05-24T03:50:04;100001.88;;;7.24;100.00
27984;BME280;15317;50.360;8.726;2023-05-24T03:55:08;100013.19;;;7.18;100.00
27984;BME280;15317;50.360;8.726;2023-05-24T04:00:13;100032.38;;;7.15;100.00
27984;BME280;15317;50.360;8.726;2023-05-24T04:05:17;100025.47;;;7.11;100.00
27984;BME280;15317;50.360;8.726;2023-05-24T04:10:20;100027.59;;;7.07;100.00
27984;BME280;15317;50.360;8.726;2023-05-24T04:15:25;100030.28;;;7.07;100.00
27984;BME280;15317;50.360;8.726;2023-05-24T04:20:28;100028.56;;;7.06;100.00
27984;BME280;15317;50.360;8.726;2023-05-24T04:25:31;100021.69;;;7.13;100.00
27984;BME280;15317;50.360;8.726;2023-05-24T04:30:36;100022.91;;;7.21;100.00
27984;BME280;15317;50.360;8.726;2023-05-24T04:35:39;100036.03;;;7.25;100.00
27984;BME280;15317;50.360;8.726;2023-05-24T04:40:42;100035.03;;;7.26;100.00
27984;BME280;15317;50.360;8.726;2023-05-24T04:45:47;100041.91;;;7.30;100.00
27984;BME280;15317;50.360;8.726;2023-05-24T04:50:52;100046.81;;;7.36;100.00
27984;BME280;15317;50.360;8.726;2023-05-24T04:55:55;100053.44;;;7.43;100.00
27984;BME280;15317;50.360;8.726;2023-05-24T05:01:00;100056.75;;;7.47;100.00
27984;BME280;15317;50.360;8.726;2023-05-24T05:06:03;100063.59;;;7.62;100.00
27984;BME280;15317;50.360;8.726;2023-05-24T05:11:06;100058.03;;;7.75;100.00
27984;BME280;15317;50.360;8.726;2023-05-24T05:16:11;100054.69;;;7.82;100.00
27984;BME280;15317;50.360;8.726;2023-05-24T05:21:15;100062.00;;;7.91;100.00
27984;BME280;15317;50.360;8.726;2023-05-24T05:26:18;100054.50;;;7.95;100.00
27984;BME280;15317;50.360;8.726;2023-05-24T05:31:23;100073.34;;;8.17;100.00
27984;BME280;15317;50.360;8.726;2023-05-24T05:36:27;100081.28;;;8.30;100.00
27984;BME280;15317;50.360;8.726;2023-05-24T05:41:30;100079.53;;;8.29;96.26
27984;BME280;15317;50.360;8.726;2023-05-24T05:46:34;100074.91;;;8.52;97.93
27984;BME280;15317;50.360;8.726;2023-05-24T05:51:38;100080.44;;;8.71;96.07
27984;BME280;15317;50.360;8.726;2023-05-24T05:56:41;100084.28;;;8.99;94.35
27984;BME280;15317;50.360;8.726;2023-05-24T06:01:48;100080.19;;;9.04;87.54
27984;BME280;15317;50.360;8.726;2023-05-24T06:06:52;100092.88;;;9.04;85.84
27984;BME280;15317;50.360;8.726;2023-05-24T06:11:55;100093.44;;;9.38;85.99
27984;BME280;15317;50.360;8.726;2023-05-24T06:17:00;100087.06;;;9.58;85.01
27984;BME280;15317;50.360;8.726;2023-05-24T06:22:04;100086.28;;;10.06;82.00
27984;BME280;15317;50.360;8.726;2023-05-24T06:27:07;100085.75;;;10.50;79.51
27984;BME280;15317;50.360;8.726;2023-05-24T06:32:11;100092.47;;;10.37;77.12
27984;BME280;15317;50.360;8.726;2023-05-24T06:37:15;100090.28;;;10.11;78.54
27984;BME280;15317;50.360;8.726;2023-05-24T06:42:18;100088.59;;;10.20;78.38
27984;BME280;15317;50.360;8.726;2023-05-24T06:47:22;100090.69;;;11.21;76.03
27984;BME280;15317;50.360;8.726;2023-05-24T06:52:26;100085.13;;;11.13;74.51
27984;BME280;15317;50.360;8.726;2023-05-24T06:57:29;100103.22;;;12.13;69.85
27984;BME280;15317;50.360;8.726;2023-05-24T07:02:34;100107.94;;;12.90;68.71
27984;BME280;15317;50.360;8.726;2023-05-24T07:07:37;100126.72;;;12.50;65.33
27984;BME280;15317;50.360;8.726;2023-05-24T07:12:41;100135.00;;;11.95;69.02
27984;BME280;15317;50.360;8.726;2023-05-24T07:17:46;100146.69;;;11.51;68.99
27984;BME280;15317;50.360;8.726;2023-05-24T07:22:50;100152.06;;;11.60;70.10
27984;BME280;15317;50.360;8.726;2023-05-24T07:27:54;100162.13;;;11.60;73.29
27984;BME280;15317;50.360;8.726;2023-05-24T07:32:58;100147.97;;;11.09;71.60
27984;BME280;15317;50.360;8.726;2023-05-24T07:38:03;100139.28;;;10.96;74.08
27984;BME280;15317;50.360;8.726;2023-05-24T07:43:06;100148.44;;;10.95;74.74
27984;BME280;15317;50.360;8.726;2023-05-24T07:48:11;100151.47;;;10.83;74.33
27984;BME280;15317;50.360;8.726;2023-05-24T07:53:15;100162.28;;;11.02;75.14
27984;BME280;15317;50.360;8.726;2023-05-24T07:58:18;100158.72;;;10.92;75.23
27984;BME280;15317;50.360;8.726;2023-05-24T08:03:23;100157.41;;;11.15;72.09
27984;BME280;15317;50.360;8.726;2023-05-24T08:08:27;100158.63;;;11.77;73.84
27984;BME280;15317;50.360;8.726;2023-05-24T08:13:30;100148.19;;;13.40;67.28
27984;BME280;15317;50.360;8.726;2023-05-24T08:18:35;100151.69;;;15.15;60.71
27984;BME280;15317;50.360;8.726;2023-05-24T08:23:38;100157.97;;;16.57;56.86
27984;BME280;15317;50.360;8.726;2023-05-24T08:28:42;100164.13;;;15.97;55.50
27984;BME280;15317;50.360;8.726;2023-05-24T08:33:46;100141.69;;;14.17;58.91
27984;BME280;15317;50.360;8.726;2023-05-24T08:38:51;100157.53;;;14.63;57.35
27984;BME280;15317;50.360;8.726;2023-05-24T08:43:57;100149.44;;;13.88;58.25
27984;BME280;15317;50.360;8.726;2023-05-24T08:49:04;100139.19;;;14.40;57.24
27984;BME280;15317;50.360;8.726;2023-05-24T08:54:09;100137.38;;;16.07;54.91
27984;BME280;15317;50.360;8.726;2023-05-24T08:59:13;100138.03;;;16.86;50.83
27984;BME280;15317;50.360;8.726;2023-05-24T09:04:18;100133.00;;;18.66;49.18
27984;BME280;15317;50.360;8.726;2023-05-24T09:09:25;100141.88;;;17.96;45.56
27984;BME280;15317;50.360;8.726;2023-05-24T09:14:30;100144.75;;;18.24;48.18
27984;BME280;15317;50.360;8.726;2023-05-24T09:19:35;100136.25;;;18.54;46.30
27984;BME280;15317;50.360;8.726;2023-05-24T09:24:41;100138.47;;;16.97;48.59
27984;BME280;15317;50.360;8.726;2023-05-24T09:29:44;100136.38;;;16.99;48.51
27984;BME280;15317;50.360;8.726;2023-05-24T09:34:51;100134.00;;;17.19;49.50
27984;BME280;15317;50.360;8.726;2023-05-24T09:39:55;100130.59;;;18.41;46.07
27984;BME280;15317;50.360;8.726;2023-05-24T09:45:00;100131.13;;;18.51;44.43
27984;BME280;15317;50.360;8.726;2023-05-24T09:50:13;100131.13;;;17.65;47.59
27984;BME280;15317;50.360;8.726;2023-05-24T09:55:19;100133.84;;;18.66;44.51
27984;BME280;15317;50.360;8.726;2023-05-24T10:00:22;100126.38;;;18.81;47.48
27984;BME280;15317;50.360;8.726;2023-05-24T10:05:27;100131.81;;;19.86;43.89
27984;BME280;15317;50.360;8.726;2023-05-24T10:10:32;100129.84;;;19.18;43.58
27984;BME280;15317;50.360;8.726;2023-05-24T10:15:35;100132.50;;;19.32;43.65
27984;BME280;15317;50.360;8.726;2023-05-24T10:20:40;100118.69;;;19.26;47.86
27984;BME280;15317;50.360;8.726;2023-05-24T10:25:49;100111.03;;;17.64;44.09
27984;BME280;15317;50.360;8.726;2023-05-24T10:31:02;100108.06;;;16.84;47.27
27984;BME280;15317;50.360;8.726;2023-05-24T10:36:11;100095.91;;;16.64;49.87
27984;BME280;15317;50.360;8.726;2023-05-24T10:41:16;100100.50;;;17.38;53.42
27984;BME280;15317;50.360;8.726;2023-05-24T10:46:20;100106.19;;;16.99;47.68
27984;BME280;15317;50.360;8.726;2023-05-24T10:51:32;100099.91;;;15.69;52.04
27984;BME280;15317;50.360;8.726;2023-05-24T10:56:39;100099.00;;;16.07;48.53
27984;BME280;15317;50.360;8.726;2023-05-24T11:01:43;100090.00;;;15.60;53.25
27984;BME280;15317;50.360;8.726;2023-05-24T11:06:53;100084.53;;;15.60;52.13
27984;BME280;15317;50.360;8.726;2023-05-24T11:12:00;100086.22;;;15.69;51.81
27984;BME280;15317;50.360;8.726;2023-05-24T11:17:06;100072.56;;;15.92;53.79
27984;BME280;15317;50.360;8.726;2023-05-24T11:22:12;100076.19;;;16.83;53.20
27984;BME280;15317;50.360;8.726;2023-05-24T11:27:16;100094.59;;;17.56;47.31
27984;BME280;15317;50.360;8.726;2023-05-24T11:32:20;100084.00;;;16.49;50.61
27984;BME280;15317;50.360;8.726;2023-05-24T11:37:26;100089.78;;;16.54;51.32
27984;BME280;15317;50.360;8.726;2023-05-24T11:42:46;100076.91;;;16.54;47.15
27984;BME280;15317;50.360;8.726;2023-05-24T11:47:49;100077.00;;;16.69;51.21
27984;BME280;15317;50.360;8.726;2023-05-24T11:53:01;100087.50;;;17.18;45.05
27984;BME280;15317;50.360;8.726;2023-05-24T11:58:05;100086.75;;;17.53;45.13
27984;BME280;15317;50.360;8.726;2023-05-24T12:03:09;100080.00;;;18.42;48.75
27984;BME280;15317;50.360;8.726;2023-05-24T12:08:16;100086.53;;;19.61;43.50
27984;BME280;15317;50.360;8.726;2023-05-24T12:13:20;100074.31;;;18.01;44.47
27984;BME280;15317;50.360;8.726;2023-05-24T12:18:25;100078.97;;;17.42;47.38
27984;BME280;15317;50.360;8.726;2023-05-24T12:23:29;100069.75;;;16.31;46.84
27984;BME280;15317;50.360;8.726;2023-05-24T12:28:34;100077.03;;;16.15;51.63
27984;BME280;15317;50.360;8.726;2023-05-24T12:33:37;100072.41;;;15.85;49.22
27984;BME280;15317;50.360;8.726;2023-05-24T12:38:42;100060.41;;;17.15;48.99
27984;BME280;15317;50.360;8.726;2023-05-24T12:43:45;100065.34;;;17.34;49.85
27984;BME280;15317;50.360;8.726;2023-05-24T12:48:48;100056.25;;;17.48;44.87
27984;BME280;15317;50.360;8.726;2023-05-24T12:53:53;100064.38;;;17.42;45.69
27984;BME280;15317;50.360;8.726;2023-05-24T12:58:56;100066.19;;;18.36;43.92
27984;BME280;15317;50.360;8.726;2023-05-24T13:03:59;100066.25;;;18.85;45.52
27984;BME280;15317;50.360;8.726;2023-05-24T13:09:04;100063.25;;;18.16;46.75
27984;BME280;15317;50.360;8.726;2023-05-24T13:14:08;100058.28;;;18.47;48.73
27984;BME280;15317;50.360;8.726;2023-05-24T13:19:12;100046.16;;;19.88;43.72
27984;BME280;15317;50.360;8.726;2023-05-24T13:24:17;100045.91;;;19.07;40.44
27984;BME280;15317;50.360;8.726;2023-05-24T13:29:21;100025.81;;;18.15;45.26
27984;BME280;15317;50.360;8.726;2023-05-24T13:34:27;100033.19;;;19.41;42.88
27984;BME280;15317;50.360;8.726;2023-05-24T13:39:32;100038.25;;;19.37;41.02
27984;BME280;15317;50.360;8.726;2023-05-24T13:44:36;100031.94;;;18.81;42.06
27984;BME280;15317;50.360;8.726;2023-05-24T13:49:39;100029.47;;;19.55;44.17
27984;BME280;15317;50.360;8.726;2023-05-24T13:54:44;100017.66;;;18.99;43.11
27984;BME280;15317;50.360;8.726;2023-05-24T13:59:48;100022.69;;;19.16;40.61
27984;BME280;15317;50.360;8.726;2023-05-24T14:04:51;100020.13;;;18.59;39.23
27984;BME280;15317;50.360;8.726;2023-05-24T14:10:02;100028.41;;;19.21;41.93
27984;BME280;15317;50.360;8.726;2023-05-24T14:15:06;100027.13;;;18.62;41.79
27984;BME280;15317;50.360;8.726;2023-05-24T14:20:10;100022.97;;;18.72;42.35
27984;BME280;15317;50.360;8.726;2023-05-24T14:25:15;100027.81;;;18.98;37.33
27984;BME280;15317;50.360;8.726;2023-05-24T14:30:18;100020.50;;;19.94;41.19
27984;BME280;15317;50.360;8.726;2023-05-24T14:35:21;100013.59;;;20.31;38.17
27984;BME280;15317;50.360;8.726;2023-05-24T14:40:26;100002.63;;;18.67;41.84
27984;BME280;15317;50.360;8.726;2023-05-24T14:45:29;100004.31;;;18.46;42.06
27984;BME280;15317;50.360;8.726;2023-05-24T14:50:32;100000.91;;;17.81;42.47
27984;BME280;15317;50.360;8.726;2023-05-24T14:55:37;99995.75;;;16.68;46.89
27984;BME280;15317;50.360;8.726;2023-05-24T15:00:42;99995.97;;;16.44;46.65
27984;BME280;15317;50.360;8.726;2023-05-24T15:05:46;99997.81;;;16.66;45.73
27984;BME280;15317;50.360;8.726;2023-05-24T15:10:51;100005.78;;;16.53;45.72
27984;BME280;15317;50.360;8.726;2023-05-24T15:15:54;99999.13;;;16.33;46.70
27984;BME280;15317;50.360;8.726;2023-05-24T15:21:01;99996.19;;;16.57;46.11
27984;BME280;15317;50.360;8.726;2023-05-24T15:26:05;100001.06;;;16.47;43.52
27984;BME280;15317;50.360;8.726;2023-05-24T15:31:09;99998.31;;;16.09;43.83
27984;BME280;15317;50.360;8.726;2023-05-24T15:36:12;99993.09;;;16.75;44.67
27984;BME280;15317;50.360;8.726;2023-05-24T15:41:19;99991.88;;;16.77;41.55
27984;BME280;15317;50.360;8.726;2023-05-24T15:46:22;99978.81;;;17.09;43.20
27984;BME280;15317;50.360;8.726;2023-05-24T15:51:25;99988.50;;;17.55;44.17
27984;BME280;15317;50.360;8.726;2023-05-24T15:56:33;99993.31;;;17.83;45.42
27984;BME280;15317;50.360;8.726;2023-05-24T16:01:36;100000.84;;;18.16;45.23
27984;BME280;15317;50.360;8.726;2023-05-24T16:06:39;99995.75;;;18.56;45.16
27984;BME280;15317;50.360;8.726;2023-05-24T16:11:44;99993.34;;;19.37;40.02
27984;BME280;15317;50.360;8.726;2023-05-24T16:16:48;99988.13;;;20.29;39.23
27984;BME280;15317;50.360;8.726;2023-05-24T16:21:51;100001.31;;;21.19;37.10
27984;BME280;15317;50.360;8.726;2023-05-24T16:26:56;100004.28;;;20.84;36.19
27984;BME280;15317;50.360;8.726;2023-05-24T16:31:59;100006.75;;;19.12;41.00
27984;BME280;15317;50.360;8.726;2023-05-24T16:37:03;99999.88;;;18.94;40.84
27984;BME280;15317;50.360;8.726;2023-05-24T16:42:07;99984.25;;;17.67;42.85
27984;BME280;15317;50.360;8.726;2023-05-24T16:47:10;99975.41;;;17.07;43.96
27984;BME280;15317;50.360;8.726;2023-05-24T16:52:13;99981.06;;;17.49;42.68
27984;BME280;15317;50.360;8.726;2023-05-24T16:57:18;99984.09;;;16.66;44.55
27984;BME280;15317;50.360;8.726;2023-05-24T17:02:21;99976.44;;;16.39;49.13
27984;BME280;15317;50.360;8.726;2023-05-24T17:07:24;99980.75;;;16.18;49.37
27984;BME280;15317;50.360;8.726;2023-05-24T17:12:29;99984.28;;;16.04;48.48
27984;BME280;15317;50.360;8.726;2023-05-24T17:17:33;99986.31;;;15.57;49.54
27984;BME280;15317;50.360;8.726;2023-05-24T17:22:36;99986.56;;;15.00;51.48
27984;BME280;15317;50.360;8.726;2023-05-24T17:27:40;99992.06;;;14.76;51.41
27984;BME280;15317;50.360;8.726;2023-05-24T17:32:44;99995.56;;;14.45;53.41
27984;BME280;15317;50.360;8.726;2023-05-24T17:37:47;99993.31;;;14.33;55.83
27984;BME280;15317;50.360;8.726;2023-05-24T17:42:51;99994.50;;;14.22;54.77
27984;BME280;15317;50.360;8.726;2023-05-24T17:47:55;99992.63;;;13.98;56.80
27984;BME280;15317;50.360;8.726;2023-05-24T17:52:58;99992.59;;;13.82;59.28
27984;BME280;15317;50.360;8.726;2023-05-24T17:58:03;99991.03;;;13.63;59.79
27984;BME280;15317;50.360;8.726;2023-05-24T18:03:06;99997.47;;;13.46;62.35
27984;BME280;15317;50.360;8.726;2023-05-24T18:08:09;99998.47;;;13.37;60.80
27984;BME280;15317;50.360;8.726;2023-05-24T18:13:13;100001.44;;;13.18;61.65
27984;BME280;15317;50.360;8.726;2023-05-24T18:18:17;100002.06;;;13.12;64.60
27984;BME280;15317;50.360;8.726;2023-05-24T18:23:20;100008.84;;;12.99;64.36
27984;BME280;15317;50.360;8.726;2023-05-24T18:28:25;100017.31;;;12.88;65.64
27984;BME280;15317;50.360;8.726;2023-05-24T18:33:28;100016.50;;;12.70;67.75
27984;BME280;15317;50.360;8.726;2023-05-24T18:38:32;100033.41;;;12.74;65.64
27984;BME280;15317;50.360;8.726;2023-05-24T18:43:37;100033.34;;;12.65;68.09
27984;BME280;15317;50.360;8.726;2023-05-24T18:48:40;100039.28;;;12.61;69.19
27984;BME280;15317;50.360;8.726;2023-05-24T18:53:46;100034.28;;;12.56;68.03
27984;BME280;15317;50.360;8.726;2023-05-24T18:58:52;100031.91;;;12.53;67.66
27984;BME280;15317;50.360;8.726;2023-05-24T19:03:59;100043.84;;;12.35;68.96
27984;BME280;15317;50.360;8.726;2023-05-24T19:09:03;100047.75;;;12.14;71.94
27984;BME280;15317;50.360;8.726;2023-05-24T19:14:07;100053.03;;;11.98;72.37
27984;BME280;15317;50.360;8.726;2023-05-24T19:19:11;100053.19;;;11.79;72.82
27984;BME280;15317;50.360;8.726;2023-05-24T19:24:14;100061.59;;;11.58;75.78
27984;BME280;15317;50.360;8.726;2023-05-24T19:29:18;100063.06;;;11.53;74.50
27984;BME280;15317;50.360;8.726;2023-05-24T19:34:21;100064.00;;;11.34;76.72
27984;BME280;15317;50.360;8.726;2023-05-24T19:39:25;100069.38;;;11.26;77.51
27984;BME280;15317;50.360;8.726;2023-05-24T19:44:30;100078.16;;;11.10;79.70
27984;BME280;15317;50.360;8.726;2023-05-24T19:49:33;100082.63;;;10.92;82.57
27984;BME280;15317;50.360;8.726;2023-05-24T19:54:36;100088.09;;;10.82;82.64
27984;BME280;15317;50.360;8.726;2023-05-24T19:59:41;100094.28;;;10.75;81.93
27984;BME280;15317;50.360;8.726;2023-05-24T20:04:45;100100.56;;;10.65;83.58
27984;BME280;15317;50.360;8.726;2023-05-24T20:09:48;100115.44;;;10.61;83.68
27984;BME280;15317;50.360;8.726;2023-05-24T20:14:53;100111.47;;;10.56;85.10
27984;BME280;15317;50.360;8.726;2023-05-24T20:19:56;100107.75;;;10.47;86.44
27984;BME280;15317;50.360;8.726;2023-05-24T20:24:59;100106.59;;;10.40;86.51
27984;BME280;15317;50.360;8.726;2023-05-24T20:30:05;100120.34;;;10.29;89.50
27984;BME280;15317;50.360;8.726;2023-05-24T20:35:09;100117.63;;;10.29;86.74
27984;BME280;15317;50.360;8.726;2023-05-24T20:40:18;100119.75;;;10.25;88.19
27984;BME280;15317;50.360;8.726;2023-05-24T20:45:24;100119.28;;;10.11;90.18
27984;BME280;15317;50.360;8.726;2023-05-24T20:50:27;100119.56;;;9.98;92.26
27984;BME280;15317;50.360;8.726;2023-05-24T20:55:31;100120.72;;;9.96;91.85
27984;BME280;15317;50.360;8.726;2023-05-24T21:00:35;100122.25;;;9.98;89.55
27984;BME280;15317;50.360;8.726;2023-05-24T21:05:41;100127.00;;;9.96;89.58
27984;BME280;15317;50.360;8.726;2023-05-24T21:10:45;100137.69;;;9.98;90.11
27984;BME280;15317;50.360;8.726;2023-05-24T21:15:49;100141.09;;;9.90;90.85
27984;BME280;15317;50.360;8.726;2023-05-24T21:20:53;100138.56;;;9.88;90.09
27984;BME280;15317;50.360;8.726;2023-05-24T21:25:56;100138.09;;;9.83;90.75
27984;BME280;15317;50.360;8.726;2023-05-24T21:31:01;100137.09;;;9.84;89.58
27984;BME280;15317;50.360;8.726;2023-05-24T21:36:05;100150.22;;;9.79;92.36
27984;BME280;15317;50.360;8.726;2023-05-24T21:41:08;100154.50;;;9.72;92.37
27984;BME280;15317;50.360;8.726;2023-05-24T21:46:12;100154.38;;;9.74;91.44
27984;BME280;15317;50.360;8.726;2023-05-24T21:51:15;100151.91;;;9.71;92.55
27984;BME280;15317;50.360;8.726;2023-05-24T21:56:18;100149.78;;;9.74;92.23
27984;BME280;15317;50.360;8.726;2023-05-24T22:01:23;100161.47;;;9.65;94.44
27984;BME280;15317;50.360;8.726;2023-05-24T22:06:29;100166.16;;;9.63;94.00
27984;BME280;15317;50.360;8.726;2023-05-24T22:11:32;100172.44;;;9.54;95.18
27984;BME280;15317;50.360;8.726;2023-05-24T22:16:37;100176.69;;;9.47;97.19
27984;BME280;15317;50.360;8.726;2023-05-24T22:21:41;100179.19;;;9.39;99.07
27984;BME280;15317;50.360;8.726;2023-05-24T22:26:44;100178.59;;;9.35;99.87
27984;BME280;15317;50.360;8.726;2023-05-24T22:31:50;100180.59;;;9.33;100.00
27984;BME280;15317;50.360;8.726;2023-05-24T22:36:53;100179.88;;;9.31;100.00
27984;BME280;15317;50.360;8.726;2023-05-24T22:41:57;100185.97;;;9.24;100.00
27984;BME280;15317;50.360;8.726;2023-05-24T22:47:01;100189.22;;;9.18;100.00
27984;BME280;15317;50.360;8.726;2023-05-24T22:52:05;100182.47;;;9.12;100.00
27984;BME280;15317;50.360;8.726;2023-05-24T22:57:10;100189.88;;;9.10;100.00
27984;BME280;15317;50.360;8.726;2023-05-24T23:02:15;100194.44;;;9.09;100.00
27984;BME280;15317;50.360;8.726;2023-05-24T23:07:18;100198.13;;;9.08;100.00
27984;BME280;15317;50.360;8.726;2023-05-24T23:12:22;100193.75;;;9.07;100.00
27984;BME280;15317;50.360;8.726;2023-05-24T23:17:27;100207.78;;;9.01;100.00
27984;BME280;15317;50.360;8.726;2023-05-24T23:22:30;100213.03;;;8.93;100.00
27984;BME280;15317;50.360;8.726;2023-05-24T23:27:33;100206.88;;;8.91;100.00
27984;BME280;15317;50.360;8.726;2023-05-24T23:32:38;100214.56;;;8.86;100.00
27984;BME280;15317;50.360;8.726;2023-05-24T23:37:41;100215.66;;;8.84;100.00
27984;BME280;15317;50.360;8.726;2023-05-24T23:42:44;100216.41;;;8.86;100.00
27984;BME280;15317;50.360;8.726;2023-05-24T23:47:51;100209.66;;;8.80;100.00
27984;BME280;15317;50.360;8.726;2023-05-24T23:52:54;100221.72;;;8.76;100.00
27984;BME280;15317;50.360;8.726;2023-05-24T23:57:57;100228.66;;;8.69;100.00
